sensor_id;sensor_type;location;lat;lon;timestamp;P1;durP1;ratioP1;P2;durP2;ratioP2
55007;SDS011;40902;45.116;21.296;2023-06-14T00:00:19;4.72;;;2.90;;
55007;SDS011;40902;45.116;21.296;2023-06-14T00:02:45;4.57;;;2.72;;
55007;SDS011;40902;45.116;21.296;2023-06-14T00:05:11;4.70;;;2.70;;
55007;SDS011;40902;45.116;21.296;2023-06-14T00:07:38;3.88;;;2.58;;
55007;SDS011;40902;45.116;21.296;2023-06-14T00:10:08;6.15;;;2.80;;
55007;SDS011;40902;45.116;21.296;2023-06-14T00:12:35;6.53;;;3.10;;
55007;SDS011;40902;45.116;21.296;2023-06-14T00:15:01;4.30;;;2.83;;
55007;SDS011;40902;45.116;21.296;2023-06-14T00:17:27;5.53;;;2.95;;
55007;SDS011;40902;45.116;21.296;2023-06-14T00:19:58;5.43;;;3.15;;
55007;SDS011;40902;45.116;21.296;2023-06-14T00:22:25;3.83;;;2.90;;
55007;SDS011;40902;45.116;21.296;2023-06-14T00:24:51;6.20;;;2.90;;
55007;SDS011;40902;45.116;21.296;2023-06-14T00:27:17;9.13;;;2.85;;
55007;SDS011;40902;45.116;21.296;2023-06-14T00:29:43;5.13;;;3.28;;
55007;SDS011;40902;45.116;21.296;2023-06-14T00:32:09;5.40;;;3.10;;
55007;SDS011;40902;45.116;21.296;2023-06-14T00:34:35;4.82;;;2.70;;
55007;SDS011;40902;45.116;21.296;2023-06-14T00:37:01;4.32;;;2.75;;
55007;SDS011;40902;45.116;21.296;2023-06-14T00:39:27;7.88;;;3.40;;
55007;SDS011;40902;45.116;21.296;2023-06-14T00:41:54;6.70;;;3.10;;
55007;SDS011;40902;45.116;21.296;2023-06-14T00:44:20;6.25;;;3.10;;
55007;SDS011;40902;45.116;21.296;2023-06-14T00:46:46;6.10;;;3.20;;
55007;SDS011;40902;45.116;21.296;2023-06-14T00:49:15;6.15;;;3.13;;
55007;SDS011;40902;45.116;21.296;2023-06-14T00:51:43;6.60;;;3.08;;
55007;SDS011;40902;45.116;21.296;2023-06-14T00:54:09;5.45;;;2.92;;
55007;SDS011;40902;45.116;21.296;2023-06-14T00:56:36;7.43;;;3.13;;
55007;SDS011;40902;45.116;21.296;2023-06-14T00:59:02;9.73;;;3.63;;
55007;SDS011;40902;45.116;21.296;2023-06-14T01:01:29;5.47;;;3.25;;
55007;SDS011;40902;45.116;21.296;2023-06-14T01:03:59;6.50;;;4.03;;
55007;SDS011;40902;45.116;21.296;2023-06-14T01:09:05;4.72;;;3.00;;
55007;SDS011;40902;45.116;21.296;2023-06-14T01:11:36;6.25;;;3.50;;
55007;SDS011;40902;45.116;21.296;2023-06-14T01:14:04;5.63;;;3.30;;
55007;SDS011;40902;45.116;21.296;2023-06-14T01:16:31;7.40;;;3.65;;
55007;SDS011;40902;45.116;21.296;2023-06-14T01:18:57;4.32;;;3.40;;
55007;SDS011;40902;45.116;21.296;2023-06-14T01:21:24;6.25;;;3.63;;
55007;SDS011;40902;45.116;21.296;2023-06-14T01:23:51;6.60;;;3.83;;
55007;SDS011;40902;45.116;21.296;2023-06-14T01:26:21;6.50;;;3.22;;
55007;SDS011;40902;45.116;21.296;2023-06-14T01:28:48;8.10;;;3.25;;
55007;SDS011;40902;45.116;21.296;2023-06-14T01:31:24;5.40;;;3.33;;
55007;SDS011;40902;45.116;21.296;2023-06-14T01:33:52;5.75;;;3.55;;
55007;SDS011;40902;45.116;21.296;2023-06-14T01:36:18;4.75;;;3.15;;
55007;SDS011;40902;45.116;21.296;2023-06-14T01:38:45;5.32;;;3.60;;
55007;SDS011;40902;45.116;21.296;2023-06-14T01:41:13;8.30;;;3.85;;
55007;SDS011;40902;45.116;21.296;2023-06-14T01:43:40;6.30;;;3.72;;
55007;SDS011;40902;45.116;21.296;2023-06-14T01:46:07;6.03;;;4.25;;
55007;SDS011;40902;45.116;21.296;2023-06-14T01:48:34;6.18;;;3.47;;
55007;SDS011;40902;45.116;21.296;2023-06-14T01:51:00;6.38;;;3.85;;
55007;SDS011;40902;45.116;21.296;2023-06-14T01:53:26;8.60;;;3.85;;
55007;SDS011;40902;45.116;21.296;2023-06-14T01:55:52;5.35;;;3.95;;
55007;SDS011;40902;45.116;21.296;2023-06-14T01:58:19;6.88;;;3.70;;
55007;SDS011;40902;45.116;21.296;2023-06-14T02:00:46;6.53;;;3.40;;
55007;SDS011;40902;45.116;21.296;2023-06-14T02:03:12;6.05;;;3.63;;
55007;SDS011;40902;45.116;21.296;2023-06-14T02:05:38;5.28;;;3.50;;
55007;SDS011;40902;45.116;21.296;2023-06-14T02:08:05;6.20;;;3.40;;
55007;SDS011;40902;45.116;21.296;2023-06-14T02:10:31;5.13;;;3.40;;
55007;SDS011;40902;45.116;21.296;2023-06-14T02:12:57;5.72;;;3.40;;
55007;SDS011;40902;45.116;21.296;2023-06-14T02:15:23;6.07;;;3.70;;
55007;SDS011;40902;45.116;21.296;2023-06-14T02:17:49;7.57;;;3.80;;
55007;SDS011;40902;45.116;21.296;2023-06-14T02:20:15;6.20;;;3.70;;
55007;SDS011;40902;45.116;21.296;2023-06-14T02:22:42;6.28;;;3.67;;
55007;SDS011;40902;45.116;21.296;2023-06-14T02:25:08;6.68;;;3.33;;
55007;SDS011;40902;45.116;21.296;2023-06-14T02:27:34;5.10;;;3.50;;
55007;SDS011;40902;45.116;21.296;2023-06-14T02:30:00;5.68;;;3.70;;
55007;SDS011;40902;45.116;21.296;2023-06-14T02:32:26;7.05;;;3.35;;
55007;SDS011;40902;45.116;21.296;2023-06-14T02:34:55;6.47;;;3.58;;
55007;SDS011;40902;45.116;21.296;2023-06-14T02:37:22;8.10;;;3.65;;
55007;SDS011;40902;45.116;21.296;2023-06-14T02:39:48;7.50;;;3.63;;
55007;SDS011;40902;45.116;21.296;2023-06-14T02:42:14;8.07;;;3.80;;
55007;SDS011;40902;45.116;21.296;2023-06-14T02:44:40;7.10;;;3.90;;
55007;SDS011;40902;45.116;21.296;2023-06-14T02:47:06;8.43;;;5.20;;
55007;SDS011;40902;45.116;21.296;2023-06-14T02:49:32;7.70;;;4.22;;
55007;SDS011;40902;45.116;21.296;2023-06-14T02:51:58;8.38;;;4.80;;
55007;SDS011;40902;45.116;21.296;2023-06-14T02:54:24;7.97;;;4.53;;
55007;SDS011;40902;45.116;21.296;2023-06-14T02:56:50;8.70;;;4.35;;
55007;SDS011;40902;45.116;21.296;2023-06-14T02:59:16;7.10;;;4.22;;
55007;SDS011;40902;45.116;21.296;2023-06-14T03:01:44;9.23;;;4.88;;
55007;SDS011;40902;45.116;21.296;2023-06-14T03:04:10;11.32;;;4.50;;
55007;SDS011;40902;45.116;21.296;2023-06-14T03:06:36;10.05;;;4.53;;
55007;SDS011;40902;45.116;21.296;2023-06-14T03:09:04;8.15;;;4.65;;
55007;SDS011;40902;45.116;21.296;2023-06-14T03:11:31;10.10;;;4.65;;
55007;SDS011;40902;45.116;21.296;2023-06-14T03:13:57;8.02;;;4.50;;
55007;SDS011;40902;45.116;21.296;2023-06-14T03:16:23;6.53;;;4.03;;
55007;SDS011;40902;45.116;21.296;2023-06-14T03:18:50;6.07;;;4.47;;
55007;SDS011;40902;45.116;21.296;2023-06-14T03:21:16;8.65;;;4.22;;
55007;SDS011;40902;45.116;21.296;2023-06-14T03:23:43;7.55;;;4.28;;
55007;SDS011;40902;45.116;21.296;2023-06-14T03:26:09;13.57;;;5.30;;
55007;SDS011;40902;45.116;21.296;2023-06-14T03:28:40;10.65;;;4.78;;
55007;SDS011;40902;45.116;21.296;2023-06-14T03:31:06;14.13;;;5.22;;
55007;SDS011;40902;45.116;21.296;2023-06-14T03:33:33;10.18;;;4.70;;
55007;SDS011;40902;45.116;21.296;2023-06-14T03:36:00;9.55;;;4.40;;
55007;SDS011;40902;45.116;21.296;2023-06-14T03:38:27;9.32;;;5.07;;
55007;SDS011;40902;45.116;21.296;2023-06-14T03:40:53;9.38;;;4.47;;
55007;SDS011;40902;45.116;21.296;2023-06-14T03:43:19;8.27;;;3.97;;
55007;SDS011;40902;45.116;21.296;2023-06-14T03:45:45;9.82;;;4.68;;
55007;SDS011;40902;45.116;21.296;2023-06-14T03:48:11;8.52;;;4.15;;
55007;SDS011;40902;45.116;21.296;2023-06-14T03:50:37;8.82;;;3.58;;
55007;SDS011;40902;45.116;21.296;2023-06-14T03:53:03;7.82;;;3.70;;
55007;SDS011;40902;45.116;21.296;2023-06-14T03:55:29;7.03;;;3.50;;
55007;SDS011;40902;45.116;21.296;2023-06-14T03:57:58;8.13;;;3.78;;
55007;SDS011;40902;45.116;21.296;2023-06-14T04:00:25;6.00;;;3.92;;
55007;SDS011;40902;45.116;21.296;2023-06-14T04:02:51;8.95;;;3.90;;
55007;SDS011;40902;45.116;21.296;2023-06-14T04:05:18;9.90;;;4.18;;
55007;SDS011;40902;45.116;21.296;2023-06-14T04:07:44;6.15;;;3.50;;
55007;SDS011;40902;45.116;21.296;2023-06-14T04:10:11;9.38;;;4.10;;
55007;SDS011;40902;45.116;21.296;2023-06-14T04:12:38;8.65;;;3.80;;
55007;SDS011;40902;45.116;21.296;2023-06-14T04:15:04;6.00;;;3.78;;
55007;SDS011;40902;45.116;21.296;2023-06-14T04:17:37;9.00;;;4.23;;
55007;SDS011;40902;45.116;21.296;2023-06-14T04:20:03;5.53;;;3.40;;
55007;SDS011;40902;45.116;21.296;2023-06-14T04:22:31;6.10;;;3.65;;
55007;SDS011;40902;45.116;21.296;2023-06-14T04:24:58;6.60;;;3.17;;
55007;SDS011;40902;45.116;21.296;2023-06-14T04:27:25;5.47;;;3.35;;
55007;SDS011;40902;45.116;21.296;2023-06-14T04:29:52;8.38;;;3.42;;
55007;SDS011;40902;45.116;21.296;2023-06-14T04:32:25;5.68;;;3.33;;
55007;SDS011;40902;45.116;21.296;2023-06-14T04:34:54;5.38;;;3.10;;
55007;SDS011;40902;45.116;21.296;2023-06-14T04:37:23;5.95;;;3.20;;
55007;SDS011;40902;45.116;21.296;2023-06-14T04:39:49;10.23;;;3.33;;
55007;SDS011;40902;45.116;21.296;2023-06-14T04:42:16;9.00;;;3.92;;
55007;SDS011;40902;45.116;21.296;2023-06-14T04:44:45;5.35;;;3.20;;
55007;SDS011;40902;45.116;21.296;2023-06-14T04:47:12;7.93;;;3.35;;
55007;SDS011;40902;45.116;21.296;2023-06-14T04:49:39;7.75;;;3.50;;
55007;SDS011;40902;45.116;21.296;2023-06-14T04:52:06;6.03;;;3.33;;
55007;SDS011;40902;45.116;21.296;2023-06-14T04:54:32;8.38;;;3.55;;
55007;SDS011;40902;45.116;21.296;2023-06-14T04:56:59;8.50;;;3.80;;
55007;SDS011;40902;45.116;21.296;2023-06-14T04:59:24;6.85;;;3.35;;
55007;SDS011;40902;45.116;21.296;2023-06-14T05:01:50;5.53;;;3.42;;
55007;SDS011;40902;45.116;21.296;2023-06-14T05:04:17;7.20;;;3.67;;
55007;SDS011;40902;45.116;21.296;2023-06-14T05:06:44;5.75;;;3.65;;
55007;SDS011;40902;45.116;21.296;2023-06-14T05:09:10;9.43;;;3.50;;
55007;SDS011;40902;45.116;21.296;2023-06-14T05:11:37;6.70;;;3.38;;
55007;SDS011;40902;45.116;21.296;2023-06-14T05:14:03;5.45;;;3.10;;
55007;SDS011;40902;45.116;21.296;2023-06-14T05:16:28;4.68;;;3.15;;
55007;SDS011;40902;45.116;21.296;2023-06-14T05:18:55;6.10;;;3.20;;
55007;SDS011;40902;45.116;21.296;2023-06-14T05:21:20;7.30;;;3.88;;
55007;SDS011;40902;45.116;21.296;2023-06-14T05:23:46;6.65;;;3.33;;
55007;SDS011;40902;45.116;21.296;2023-06-14T05:26:12;8.57;;;3.22;;
55007;SDS011;40902;45.116;21.296;2023-06-14T05:28:38;9.07;;;5.25;;
55007;SDS011;40902;45.116;21.296;2023-06-14T05:31:04;7.40;;;4.03;;
55007;SDS011;40902;45.116;21.296;2023-06-14T05:33:29;6.30;;;3.90;;
55007;SDS011;40902;45.116;21.296;2023-06-14T05:35:55;6.15;;;3.40;;
55007;SDS011;40902;45.116;21.296;2023-06-14T05:38:21;5.22;;;3.10;;
55007;SDS011;40902;45.116;21.296;2023-06-14T05:40:47;6.07;;;3.25;;
55007;SDS011;40902;45.116;21.296;2023-06-14T05:43:12;7.80;;;3.67;;
55007;SDS011;40902;45.116;21.296;2023-06-14T05:45:38;6.93;;;2.92;;
55007;SDS011;40902;45.116;21.296;2023-06-14T05:48:04;6.75;;;3.28;;
55007;SDS011;40902;45.116;21.296;2023-06-14T05:50:30;7.43;;;3.58;;
55007;SDS011;40902;45.116;21.296;2023-06-14T05:52:56;4.65;;;2.65;;
55007;SDS011;40902;45.116;21.296;2023-06-14T05:55:21;7.00;;;3.38;;
55007;SDS011;40902;45.116;21.296;2023-06-14T05:57:47;7.65;;;3.25;;
55007;SDS011;40902;45.116;21.296;2023-06-14T06:00:13;7.03;;;3.53;;
55007;SDS011;40902;45.116;21.296;2023-06-14T06:02:41;8.02;;;3.63;;
55007;SDS011;40902;45.116;21.296;2023-06-14T06:05:08;6.30;;;3.20;;
55007;SDS011;40902;45.116;21.296;2023-06-14T06:07:38;5.40;;;3.25;;
55007;SDS011;40902;45.116;21.296;2023-06-14T06:10:05;6.13;;;3.05;;
55007;SDS011;40902;45.116;21.296;2023-06-14T06:12:31;6.90;;;3.03;;
55007;SDS011;40902;45.116;21.296;2023-06-14T06:14:58;5.63;;;3.83;;
55007;SDS011;40902;45.116;21.296;2023-06-14T06:17:24;10.00;;;4.72;;
55007;SDS011;40902;45.116;21.296;2023-06-14T06:19:50;15.30;;;4.20;;
55007;SDS011;40902;45.116;21.296;2023-06-14T06:22:16;8.50;;;3.47;;
55007;SDS011;40902;45.116;21.296;2023-06-14T06:24:42;7.13;;;3.80;;
55007;SDS011;40902;45.116;21.296;2023-06-14T06:27:08;6.82;;;3.67;;
55007;SDS011;40902;45.116;21.296;2023-06-14T06:29:34;9.52;;;3.60;;
55007;SDS011;40902;45.116;21.296;2023-06-14T06:32:00;7.35;;;3.65;;
55007;SDS011;40902;45.116;21.296;2023-06-14T06:34:26;8.73;;;4.93;;
55007;SDS011;40902;45.116;21.296;2023-06-14T06:36:52;10.48;;;4.60;;
55007;SDS011;40902;45.116;21.296;2023-06-14T06:39:18;9.63;;;4.18;;
55007;SDS011;40902;45.116;21.296;2023-06-14T06:41:44;8.18;;;4.43;;
55007;SDS011;40902;45.116;21.296;2023-06-14T06:44:09;6.30;;;4.10;;
55007;SDS011;40902;45.116;21.296;2023-06-14T06:46:36;9.55;;;4.15;;
55007;SDS011;40902;45.116;21.296;2023-06-14T06:49:05;7.57;;;4.40;;
55007;SDS011;40902;45.116;21.296;2023-06-14T06:51:31;8.65;;;4.07;;
55007;SDS011;40902;45.116;21.296;2023-06-14T06:53:57;7.55;;;3.83;;
55007;SDS011;40902;45.116;21.296;2023-06-14T06:56:22;7.45;;;3.95;;
55007;SDS011;40902;45.116;21.296;2023-06-14T06:58:49;8.48;;;4.07;;
55007;SDS011;40902;45.116;21.296;2023-06-14T07:01:15;7.47;;;3.45;;
55007;SDS011;40902;45.116;21.296;2023-06-14T07:03:41;7.32;;;3.17;;
55007;SDS011;40902;45.116;21.296;2023-06-14T07:06:07;8.90;;;3.70;;
55007;SDS011;40902;45.116;21.296;2023-06-14T07:08:33;7.82;;;4.00;;
55007;SDS011;40902;45.116;21.296;2023-06-14T07:11:00;9.50;;;3.38;;
55007;SDS011;40902;45.116;21.296;2023-06-14T07:13:27;8.20;;;3.40;;
55007;SDS011;40902;45.116;21.296;2023-06-14T07:15:57;7.78;;;3.42;;
55007;SDS011;40902;45.116;21.296;2023-06-14T07:18:25;6.07;;;3.33;;
55007;SDS011;40902;45.116;21.296;2023-06-14T07:20:52;6.13;;;3.13;;
55007;SDS011;40902;45.116;21.296;2023-06-14T07:23:22;6.05;;;2.92;;
55007;SDS011;40902;45.116;21.296;2023-06-14T07:25:48;5.00;;;3.10;;
55007;SDS011;40902;45.116;21.296;2023-06-14T07:28:14;6.38;;;3.15;;
55007;SDS011;40902;45.116;21.296;2023-06-14T07:30:39;3.92;;;2.90;;
55007;SDS011;40902;45.116;21.296;2023-06-14T07:33:05;6.00;;;3.20;;
55007;SDS011;40902;45.116;21.296;2023-06-14T07:35:31;7.10;;;2.88;;
55007;SDS011;40902;45.116;21.296;2023-06-14T07:37:58;4.18;;;2.80;;
55007;SDS011;40902;45.116;21.296;2023-06-14T07:40:24;6.82;;;2.85;;
55007;SDS011;40902;45.116;21.296;2023-06-14T07:42:49;10.13;;;3.33;;
55007;SDS011;40902;45.116;21.296;2023-06-14T07:45:16;5.57;;;2.55;;
55007;SDS011;40902;45.116;21.296;2023-06-14T07:47:42;4.90;;;2.47;;
55007;SDS011;40902;45.116;21.296;2023-06-14T07:50:08;5.07;;;2.80;;
55007;SDS011;40902;45.116;21.296;2023-06-14T07:52:34;5.40;;;2.80;;
55007;SDS011;40902;45.116;21.296;2023-06-14T07:55:00;5.53;;;2.80;;
55007;SDS011;40902;45.116;21.296;2023-06-14T07:57:26;4.93;;;2.60;;
55007;SDS011;40902;45.116;21.296;2023-06-14T07:59:53;7.68;;;3.08;;
55007;SDS011;40902;45.116;21.296;2023-06-14T08:02:22;4.45;;;3.05;;
55007;SDS011;40902;45.116;21.296;2023-06-14T08:04:48;4.28;;;2.70;;
55007;SDS011;40902;45.116;21.296;2023-06-14T08:07:17;7.30;;;2.80;;
55007;SDS011;40902;45.116;21.296;2023-06-14T08:09:43;4.55;;;2.80;;
55007;SDS011;40902;45.116;21.296;2023-06-14T08:12:12;5.30;;;3.00;;
55007;SDS011;40902;45.116;21.296;2023-06-14T08:14:39;6.82;;;2.75;;
55007;SDS011;40902;45.116;21.296;2023-06-14T08:17:05;7.82;;;2.83;;
55007;SDS011;40902;45.116;21.296;2023-06-14T08:19:31;5.20;;;2.72;;
55007;SDS011;40902;45.116;21.296;2023-06-14T08:21:57;5.18;;;2.97;;
55007;SDS011;40902;45.116;21.296;2023-06-14T08:24:23;5.85;;;2.80;;
55007;SDS011;40902;45.116;21.296;2023-06-14T08:26:52;7.00;;;2.85;;
55007;SDS011;40902;45.116;21.296;2023-06-14T08:29:19;5.18;;;2.92;;
55007;SDS011;40902;45.116;21.296;2023-06-14T08:31:45;4.88;;;2.88;;
55007;SDS011;40902;45.116;21.296;2023-06-14T08:34:14;5.10;;;2.70;;
55007;SDS011;40902;45.116;21.296;2023-06-14T08:36:40;6.70;;;2.70;;
55007;SDS011;40902;45.116;21.296;2023-06-14T08:39:07;4.82;;;3.03;;
55007;SDS011;40902;45.116;21.296;2023-06-14T08:41:34;5.90;;;2.80;;
55007;SDS011;40902;45.116;21.296;2023-06-14T08:44:02;5.75;;;2.75;;
55007;SDS011;40902;45.116;21.296;2023-06-14T08:46:29;5.50;;;3.00;;
55007;SDS011;40902;45.116;21.296;2023-06-14T08:48:58;4.55;;;2.78;;
55007;SDS011;40902;45.116;21.296;2023-06-14T08:51:25;4.10;;;2.78;;
55007;SDS011;40902;45.116;21.296;2023-06-14T08:53:59;5.47;;;2.75;;
55007;SDS011;40902;45.116;21.296;2023-06-14T08:56:27;4.82;;;2.60;;
55007;SDS011;40902;45.116;21.296;2023-06-14T08:58:54;5.03;;;2.72;;
55007;SDS011;40902;45.116;21.296;2023-06-14T09:01:21;4.47;;;2.70;;
55007;SDS011;40902;45.116;21.296;2023-06-14T09:03:48;7.85;;;2.83;;
55007;SDS011;40902;45.116;21.296;2023-06-14T09:06:14;4.18;;;2.80;;
55007;SDS011;40902;45.116;21.296;2023-06-14T09:08:44;4.25;;;2.72;;
55007;SDS011;40902;45.116;21.296;2023-06-14T09:11:12;5.45;;;3.17;;
55007;SDS011;40902;45.116;21.296;2023-06-14T09:13:41;6.00;;;4.05;;
55007;SDS011;40902;45.116;21.296;2023-06-14T09:16:08;7.05;;;3.65;;
55007;SDS011;40902;45.116;21.296;2023-06-14T09:18:40;4.72;;;3.05;;
55007;SDS011;40902;45.116;21.296;2023-06-14T09:21:09;10.65;;;5.85;;
55007;SDS011;40902;45.116;21.296;2023-06-14T09:23:38;11.50;;;5.90;;
55007;SDS011;40902;45.116;21.296;2023-06-14T09:26:07;11.98;;;6.50;;
55007;SDS011;40902;45.116;21.296;2023-06-14T09:28:34;5.55;;;3.72;;
55007;SDS011;40902;45.116;21.296;2023-06-14T09:31:05;4.97;;;2.72;;
55007;SDS011;40902;45.116;21.296;2023-06-14T09:33:33;4.95;;;2.58;;
55007;SDS011;40902;45.116;21.296;2023-06-14T09:35:59;6.65;;;2.92;;
55007;SDS011;40902;45.116;21.296;2023-06-14T09:38:25;6.07;;;3.00;;
55007;SDS011;40902;45.116;21.296;2023-06-14T09:40:52;8.57;;;2.90;;
55007;SDS011;40902;45.116;21.296;2023-06-14T09:43:20;4.50;;;2.78;;
55007;SDS011;40902;45.116;21.296;2023-06-14T09:45:51;4.85;;;2.90;;
55007;SDS011;40902;45.116;21.296;2023-06-14T09:48:17;4.57;;;3.13;;
55007;SDS011;40902;45.116;21.296;2023-06-14T09:50:49;6.22;;;3.20;;
55007;SDS011;40902;45.116;21.296;2023-06-14T09:53:16;4.60;;;3.28;;
55007;SDS011;40902;45.116;21.296;2023-06-14T09:55:47;6.03;;;3.30;;
55007;SDS011;40902;45.116;21.296;2023-06-14T09:58:16;6.35;;;3.25;;
55007;SDS011;40902;45.116;21.296;2023-06-14T10:00:42;8.98;;;3.58;;
55007;SDS011;40902;45.116;21.296;2023-06-14T10:03:13;5.40;;;3.25;;
55007;SDS011;40902;45.116;21.296;2023-06-14T10:05:43;4.47;;;3.03;;
55007;SDS011;40902;45.116;21.296;2023-06-14T10:08:12;7.00;;;3.33;;
55007;SDS011;40902;45.116;21.296;2023-06-14T10:10:40;7.28;;;4.13;;
55007;SDS011;40902;45.116;21.296;2023-06-14T10:13:07;6.65;;;4.30;;
55007;SDS011;40902;45.116;21.296;2023-06-14T10:25:59;5.20;;;4.00;;
55007;SDS011;40902;45.116;21.296;2023-06-14T10:28:25;6.43;;;4.18;;
55007;SDS011;40902;45.116;21.296;2023-06-14T10:31:10;7.05;;;3.72;;
55007;SDS011;40902;45.116;21.296;2023-06-14T10:33:41;6.88;;;4.18;;
55007;SDS011;40902;45.116;21.296;2023-06-14T10:41:34;6.35;;;4.50;;
55007;SDS011;40902;45.116;21.296;2023-06-14T10:44:10;8.02;;;4.40;;
55007;SDS011;40902;45.116;21.296;2023-06-14T10:46:36;7.30;;;4.75;;
55007;SDS011;40902;45.116;21.296;2023-06-14T10:49:02;5.72;;;4.25;;
55007;SDS011;40902;45.116;21.296;2023-06-14T10:51:29;6.95;;;3.80;;
55007;SDS011;40902;45.116;21.296;2023-06-14T10:53:56;5.45;;;3.53;;
55007;SDS011;40902;45.116;21.296;2023-06-14T10:56:32;6.20;;;3.33;;
55007;SDS011;40902;45.116;21.296;2023-06-14T10:58:58;5.28;;;3.47;;
55007;SDS011;40902;45.116;21.296;2023-06-14T11:04:17;6.13;;;3.58;;
55007;SDS011;40902;45.116;21.296;2023-06-14T11:11:47;5.63;;;3.70;;
55007;SDS011;40902;45.116;21.296;2023-06-14T11:14:14;7.97;;;4.10;;
55007;SDS011;40902;45.116;21.296;2023-06-14T11:16:40;6.40;;;4.25;;
55007;SDS011;40902;45.116;21.296;2023-06-14T11:19:06;5.20;;;3.85;;
55007;SDS011;40902;45.116;21.296;2023-06-14T11:21:32;6.57;;;4.22;;
55007;SDS011;40902;45.116;21.296;2023-06-14T11:23:59;8.98;;;4.57;;
55007;SDS011;40902;45.116;21.296;2023-06-14T11:26:28;6.53;;;4.05;;
55007;SDS011;40902;45.116;21.296;2023-06-14T11:28:59;8.50;;;4.10;;
55007;SDS011;40902;45.116;21.296;2023-06-14T11:31:29;5.75;;;3.83;;
55007;SDS011;40902;45.116;21.296;2023-06-14T11:33:58;7.03;;;4.20;;
55007;SDS011;40902;45.116;21.296;2023-06-14T11:36:31;8.30;;;4.40;;
55007;SDS011;40902;45.116;21.296;2023-06-14T11:39:01;6.13;;;3.83;;
55007;SDS011;40902;45.116;21.296;2023-06-14T11:41:38;5.05;;;3.55;;
55007;SDS011;40902;45.116;21.296;2023-06-14T11:44:04;6.57;;;3.70;;
55007;SDS011;40902;45.116;21.296;2023-06-14T11:46:33;7.50;;;4.32;;
55007;SDS011;40902;45.116;21.296;2023-06-14T11:49:00;4.75;;;3.55;;
55007;SDS011;40902;45.116;21.296;2023-06-14T11:51:29;5.70;;;3.60;;
55007;SDS011;40902;45.116;21.296;2023-06-14T11:53:55;6.53;;;3.88;;
55007;SDS011;40902;45.116;21.296;2023-06-14T11:56:21;5.13;;;3.65;;
55007;SDS011;40902;45.116;21.296;2023-06-14T11:58:47;7.00;;;4.38;;
55007;SDS011;40902;45.116;21.296;2023-06-14T12:01:22;5.03;;;4.00;;
55007;SDS011;40902;45.116;21.296;2023-06-14T12:03:52;6.30;;;4.18;;
55007;SDS011;40902;45.116;21.296;2023-06-14T12:06:28;8.45;;;4.15;;
55007;SDS011;40902;45.116;21.296;2023-06-14T12:08:57;6.22;;;4.10;;
55007;SDS011;40902;45.116;21.296;2023-06-14T12:11:24;6.50;;;4.75;;
55007;SDS011;40902;45.116;21.296;2023-06-14T12:13:53;6.47;;;4.30;;
55007;SDS011;40902;45.116;21.296;2023-06-14T12:16:22;7.97;;;4.60;;
55007;SDS011;40902;45.116;21.296;2023-06-14T12:21:22;7.65;;;4.85;;
55007;SDS011;40902;45.116;21.296;2023-06-14T12:23:49;5.60;;;4.20;;
55007;SDS011;40902;45.116;21.296;2023-06-14T12:26:16;6.78;;;5.00;;
55007;SDS011;40902;45.116;21.296;2023-06-14T12:28:46;5.70;;;4.30;;
55007;SDS011;40902;45.116;21.296;2023-06-14T12:31:13;7.05;;;4.95;;
55007;SDS011;40902;45.116;21.296;2023-06-14T12:33:42;8.25;;;5.65;;
55007;SDS011;40902;45.116;21.296;2023-06-14T12:36:11;6.47;;;4.40;;
55007;SDS011;40902;45.116;21.296;2023-06-14T12:38:37;5.53;;;4.50;;
55007;SDS011;40902;45.116;21.296;2023-06-14T12:41:03;5.25;;;4.18;;
55007;SDS011;40902;45.116;21.296;2023-06-14T12:43:32;10.75;;;6.57;;
55007;SDS011;40902;45.116;21.296;2023-06-14T12:45:59;8.40;;;4.72;;
55007;SDS011;40902;45.116;21.296;2023-06-14T12:48:25;5.13;;;4.00;;
55007;SDS011;40902;45.116;21.296;2023-06-14T12:50:56;6.65;;;4.10;;
55007;SDS011;40902;45.116;21.296;2023-06-14T12:53:22;6.22;;;4.30;;
55007;SDS011;40902;45.116;21.296;2023-06-14T12:55:48;7.00;;;4.30;;
55007;SDS011;40902;45.116;21.296;2023-06-14T12:58:14;6.75;;;4.20;;
55007;SDS011;40902;45.116;21.296;2023-06-14T13:00:42;6.47;;;4.32;;
55007;SDS011;40902;45.116;21.296;2023-06-14T13:03:09;5.88;;;4.38;;
55007;SDS011;40902;45.116;21.296;2023-06-14T13:05:35;7.38;;;4.30;;
55007;SDS011;40902;45.116;21.296;2023-06-14T13:08:03;6.25;;;4.10;;
55007;SDS011;40902;45.116;21.296;2023-06-14T13:10:29;5.18;;;4.22;;
55007;SDS011;40902;45.116;21.296;2023-06-14T13:12:55;6.10;;;4.00;;
55007;SDS011;40902;45.116;21.296;2023-06-14T13:15:23;6.57;;;3.95;;
55007;SDS011;40902;45.116;21.296;2023-06-14T13:17:49;6.70;;;4.35;;
55007;SDS011;40902;45.116;21.296;2023-06-14T13:20:15;7.53;;;4.45;;
55007;SDS011;40902;45.116;21.296;2023-06-14T13:22:41;5.55;;;4.15;;
55007;SDS011;40902;45.116;21.296;2023-06-14T13:25:08;7.90;;;4.20;;
55007;SDS011;40902;45.116;21.296;2023-06-14T13:27:34;4.70;;;3.80;;
55007;SDS011;40902;45.116;21.296;2023-06-14T13:30:00;5.90;;;3.95;;
55007;SDS011;40902;45.116;21.296;2023-06-14T13:32:26;6.55;;;4.07;;
55007;SDS011;40902;45.116;21.296;2023-06-14T13:34:53;7.75;;;4.03;;
55007;SDS011;40902;45.116;21.296;2023-06-14T13:37:19;5.53;;;4.15;;
55007;SDS011;40902;45.116;21.296;2023-06-14T13:39:45;6.13;;;3.92;;
55007;SDS011;40902;45.116;21.296;2023-06-14T13:42:11;6.88;;;4.00;;
55007;SDS011;40902;45.116;21.296;2023-06-14T13:44:38;9.57;;;3.88;;
55007;SDS011;40902;45.116;21.296;2023-06-14T13:47:04;5.70;;;4.28;;
55007;SDS011;40902;45.116;21.296;2023-06-14T13:49:30;6.35;;;4.25;;
55007;SDS011;40902;45.116;21.296;2023-06-14T13:51:57;5.07;;;4.28;;
55007;SDS011;40902;45.116;21.296;2023-06-14T13:54:23;7.70;;;4.60;;
55007;SDS011;40902;45.116;21.296;2023-06-14T13:56:49;7.32;;;4.15;;
55007;SDS011;40902;45.116;21.296;2023-06-14T13:59:15;6.80;;;4.07;;
55007;SDS011;40902;45.116;21.296;2023-06-14T14:01:42;6.78;;;4.35;;
55007;SDS011;40902;45.116;21.296;2023-06-14T14:04:08;6.03;;;3.65;;
55007;SDS011;40902;45.116;21.296;2023-06-14T14:06:34;6.75;;;4.45;;
55007;SDS011;40902;45.116;21.296;2023-06-14T14:09:00;7.15;;;4.18;;
55007;SDS011;40902;45.116;21.296;2023-06-14T14:11:26;7.80;;;4.82;;
55007;SDS011;40902;45.116;21.296;2023-06-14T14:13:53;7.30;;;4.30;;
55007;SDS011;40902;45.116;21.296;2023-06-14T14:16:29;5.47;;;4.20;;
55007;SDS011;40902;45.116;21.296;2023-06-14T14:19:07;5.68;;;4.20;;
55007;SDS011;40902;45.116;21.296;2023-06-14T14:21:33;7.45;;;4.40;;
55007;SDS011;40902;45.116;21.296;2023-06-14T14:24:00;7.35;;;4.55;;
55007;SDS011;40902;45.116;21.296;2023-06-14T14:26:26;10.73;;;4.63;;
55007;SDS011;40902;45.116;21.296;2023-06-14T14:28:53;5.53;;;4.40;;
55007;SDS011;40902;45.116;21.296;2023-06-14T14:31:19;5.32;;;4.45;;
55007;SDS011;40902;45.116;21.296;2023-06-14T14:33:45;7.70;;;4.63;;
55007;SDS011;40902;45.116;21.296;2023-06-14T14:36:11;7.65;;;3.80;;
55007;SDS011;40902;45.116;21.296;2023-06-14T14:38:38;6.22;;;3.85;;
55007;SDS011;40902;45.116;21.296;2023-06-14T14:41:04;8.30;;;4.22;;
55007;SDS011;40902;45.116;21.296;2023-06-14T14:43:30;6.07;;;4.40;;
55007;SDS011;40902;45.116;21.296;2023-06-14T14:45:57;8.45;;;4.07;;
55007;SDS011;40902;45.116;21.296;2023-06-14T14:48:23;6.18;;;4.20;;
55007;SDS011;40902;45.116;21.296;2023-06-14T14:50:50;5.82;;;4.15;;
55007;SDS011;40902;45.116;21.296;2023-06-14T14:53:16;5.93;;;4.53;;
55007;SDS011;40902;45.116;21.296;2023-06-14T14:55:47;6.70;;;3.92;;
55007;SDS011;40902;45.116;21.296;2023-06-14T14:58:13;8.85;;;4.10;;
55007;SDS011;40902;45.116;21.296;2023-06-14T15:00:42;6.63;;;3.85;;